sensor_id;sensor_type;location;lat;lon;timestamp;temperature;humidity
39045;DHT22;52192;52.002;5.956;2024-02-21T00:00:57;11.40;84.50
39045;DHT22;52192;52.002;5.956;2024-02-21T00:03:23;11.50;84.40
39045;DHT22;52192;52.002;5.956;2024-02-21T00:05:49;11.40;84.50
39045;DHT22;52192;52.002;5.956;2024-02-21T00:08:15;11.40;84.70
39045;DHT22;52192;52.002;5.956;2024-02-21T00:10:41;11.30;84.70
39045;DHT22;52192;52.002;5.956;2024-02-21T00:13:07;11.40;84.80
39045;DHT22;52192;52.002;5.956;2024-02-21T00:15:33;11.40;84.70
39045;DHT22;52192;52.002;5.956;2024-02-21T00:17:59;11.40;84.70
39045;DHT22;52192;52.002;5.956;2024-02-21T00:20:25;11.40;84.60
39045;DHT22;52192;52.002;5.956;2024-02-21T00:22:51;11.40;84.60
39045;DHT22;52192;52.002;5.956;2024-02-21T00:25:18;11.40;84.60
39045;DHT22;52192;52.002;5.956;2024-02-21T00:27:44;11.40;84.60
39045;DHT22;52192;52.002;5.956;2024-02-21T00:30:10;11.40;84.60
39045;DHT22;52192;52.002;5.956;2024-02-21T00:32:36;11.40;84.70
39045;DHT22;52192;52.002;5.956;2024-02-21T00:35:03;11.40;84.60
39045;DHT22;52192;52.002;5.956;2024-02-21T00:37:29;11.40;84.50
39045;DHT22;52192;52.002;5.956;2024-02-21T00:39:55;11.40;84.50
39045;DHT22;52192;52.002;5.956;2024-02-21T00:42:20;11.40;84.60
39045;DHT22;52192;52.002;5.956;2024-02-21T00:44:47;11.40;84.70
39045;DHT22;52192;52.002;5.956;2024-02-21T00:47:13;11.40;84.70
39045;DHT22;52192;52.002;5.956;2024-02-21T00:49:39;11.40;84.70
39045;DHT22;52192;52.002;5.956;2024-02-21T00:52:05;11.30;84.70
39045;DHT22;52192;52.002;5.956;2024-02-21T00:54:31;11.40;84.70
39045;DHT22;52192;52.002;5.956;2024-02-21T00:56:57;11.40;84.70
39045;DHT22;52192;52.002;5.956;2024-02-21T00:59:23;11.30;84.60
39045;DHT22;52192;52.002;5.956;2024-02-21T01:01:49;11.40;84.70
39045;DHT22;52192;52.002;5.956;2024-02-21T01:04:15;11.40;84.80
39045;DHT22;52192;52.002;5.956;2024-02-21T01:06:41;11.30;84.80
39045;DHT22;52192;52.002;5.956;2024-02-21T01:09:10;11.30;84.70
39045;DHT22;52192;52.002;5.956;2024-02-21T01:11:36;11.40;84.80
39045;DHT22;52192;52.002;5.956;2024-02-21T01:14:02;11.40;84.80
39045;DHT22;52192;52.002;5.956;2024-02-21T01:16:28;11.40;84.70
39045;DHT22;52192;52.002;5.956;2024-02-21T01:18:54;11.40;84.70
39045;DHT22;52192;52.002;5.956;2024-02-21T01:21:21;11.40;84.60
39045;DHT22;52192;52.002;5.956;2024-02-21T01:23:46;11.40;84.60
39045;DHT22;52192;52.002;5.956;2024-02-21T01:26:12;11.40;84.60
39045;DHT22;52192;52.002;5.956;2024-02-21T01:28:41;11.40;84.60
39045;DHT22;52192;52.002;5.956;2024-02-21T01:31:07;11.40;84.70
39045;DHT22;52192;52.002;5.956;2024-02-21T01:33:34;11.40;84.80
39045;DHT22;52192;52.002;5.956;2024-02-21T01:36:04;11.30;84.70
39045;DHT22;52192;52.002;5.956;2024-02-21T01:38:34;11.30;84.70
39045;DHT22;52192;52.002;5.956;2024-02-21T01:41:00;11.30;84.70
39045;DHT22;52192;52.002;5.956;2024-02-21T01:43:26;11.40;84.80
39045;DHT22;52192;52.002;5.956;2024-02-21T01:45:53;11.30;84.70
39045;DHT22;52192;52.002;5.956;2024-02-21T01:48:22;11.40;84.80
39045;DHT22;52192;52.002;5.956;2024-02-21T01:50:52;11.40;84.90
39045;DHT22;52192;52.002;5.956;2024-02-21T01:53:32;11.30;84.90
39045;DHT22;52192;52.002;5.956;2024-02-21T01:55:59;11.30;84.90
39045;DHT22;52192;52.002;5.956;2024-02-21T01:58:26;11.30;85.00
39045;DHT22;52192;52.002;5.956;2024-02-21T02:00:56;11.20;85.00
39045;DHT22;52192;52.002;5.956;2024-02-21T02:03:22;11.20;85.00
39045;DHT22;52192;52.002;5.956;2024-02-21T02:05:49;11.20;85.10
39045;DHT22;52192;52.002;5.956;2024-02-21T02:08:18;11.20;85.30
39045;DHT22;52192;52.002;5.956;2024-02-21T02:10:45;11.20;85.30
39045;DHT22;52192;52.002;5.956;2024-02-21T02:13:11;11.20;85.40
39045;DHT22;52192;52.002;5.956;2024-02-21T02:15:45;11.10;85.40
39045;DHT22;52192;52.002;5.956;2024-02-21T02:18:12;11.20;85.40
39045;DHT22;52192;52.002;5.956;2024-02-21T02:20:38;11.20;85.50
39045;DHT22;52192;52.002;5.956;2024-02-21T02:23:29;11.20;85.40
39045;DHT22;52192;52.002;5.956;2024-02-21T02:25:55;11.20;85.40
39045;DHT22;52192;52.002;5.956;2024-02-21T02:28:22;11.20;85.50
39045;DHT22;52192;52.002;5.956;2024-02-21T02:30:48;11.20;85.50
39045;DHT22;52192;52.002;5.956;2024-02-21T02:33:14;11.10;85.50
39045;DHT22;52192;52.002;5.956;2024-02-21T02:35:43;11.10;85.50
39045;DHT22;52192;52.002;5.956;2024-02-21T02:38:09;11.10;85.50
39045;DHT22;52192;52.002;5.956;2024-02-21T02:40:38;11.10;85.40
39045;DHT22;52192;52.002;5.956;2024-02-21T02:43:06;11.10;85.50
39045;DHT22;52192;52.002;5.956;2024-02-21T02:45:32;11.00;85.50
39045;DHT22;52192;52.002;5.956;2024-02-21T02:47:59;11.10;85.50
39045;DHT22;52192;52.002;5.956;2024-02-21T02:50:26;11.10;85.50
39045;DHT22;52192;52.002;5.956;2024-02-21T02:52:53;11.10;85.50
39045;DHT22;52192;52.002;5.956;2024-02-21T02:55:19;11.10;85.40
39045;DHT22;52192;52.002;5.956;2024-02-21T02:57:45;11.20;85.30
39045;DHT22;52192;52.002;5.956;2024-02-21T03:00:13;11.10;85.30
39045;DHT22;52192;52.002;5.956;2024-02-21T03:02:40;11.10;85.20
39045;DHT22;52192;52.002;5.956;2024-02-21T03:05:17;11.10;85.30
39045;DHT22;52192;52.002;5.956;2024-02-21T03:07:44;11.10;85.20
39045;DHT22;52192;52.002;5.956;2024-02-21T03:10:11;11.10;85.20
39045;DHT22;52192;52.002;5.956;2024-02-21T03:12:37;11.10;85.30
39045;DHT22;52192;52.002;5.956;2024-02-21T03:15:04;11.10;85.20
39045;DHT22;52192;52.002;5.956;2024-02-21T03:17:31;11.10;85.20
39045;DHT22;52192;52.002;5.956;2024-02-21T03:19:58;11.20;85.30
39045;DHT22;52192;52.002;5.956;2024-02-21T03:22:25;11.20;85.20
39045;DHT22;52192;52.002;5.956;2024-02-21T03:24:52;11.20;85.20
39045;DHT22;52192;52.002;5.956;2024-02-21T03:27:17;11.20;85.10
39045;DHT22;52192;52.002;5.956;2024-02-21T03:29:43;11.20;85.00
39045;DHT22;52192;52.002;5.956;2024-02-21T03:32:09;11.20;85.00
39045;DHT22;52192;52.002;5.956;2024-02-21T03:34:35;11.20;85.00
39045;DHT22;52192;52.002;5.956;2024-02-21T03:37:01;11.20;85.00
39045;DHT22;52192;52.002;5.956;2024-02-21T03:39:31;11.20;85.00
39045;DHT22;52192;52.002;5.956;2024-02-21T03:41:58;11.20;85.10
39045;DHT22;52192;52.002;5.956;2024-02-21T03:44:26;11.20;85.10
39045;DHT22;52192;52.002;5.956;2024-02-21T03:46:53;11.10;85.10
39045;DHT22;52192;52.002;5.956;2024-02-21T03:49:19;11.10;85.10
39045;DHT22;52192;52.002;5.956;2024-02-21T03:51:45;11.10;85.20
39045;DHT22;52192;52.002;5.956;2024-02-21T03:54:10;11.20;85.10
39045;DHT22;52192;52.002;5.956;2024-02-21T03:56:39;11.10;85.00
39045;DHT22;52192;52.002;5.956;2024-02-21T03:59:08;11.20;85.10
39045;DHT22;52192;52.002;5.956;2024-02-21T04:01:35;11.20;85.00
39045;DHT22;52192;52.002;5.956;2024-02-21T04:04:01;11.20;85.10
39045;DHT22;52192;52.002;5.956;2024-02-21T04:06:27;11.20;85.00
39045;DHT22;52192;52.002;5.956;2024-02-21T04:08:53;11.20;85.10
39045;DHT22;52192;52.002;5.956;2024-02-21T04:11:19;11.20;85.00
39045;DHT22;52192;52.002;5.956;2024-02-21T04:13:45;11.20;85.00
39045;DHT22;52192;52.002;5.956;2024-02-21T04:16:14;11.20;84.80
39045;DHT22;52192;52.002;5.956;2024-02-21T04:18:41;11.20;84.90
39045;DHT22;52192;52.002;5.956;2024-02-21T04:21:08;11.20;84.70
39045;DHT22;52192;52.002;5.956;2024-02-21T04:23:34;11.20;84.80
39045;DHT22;52192;52.002;5.956;2024-02-21T04:26:00;11.20;84.80
39045;DHT22;52192;52.002;5.956;2024-02-21T04:28:26;11.20;84.80
39045;DHT22;52192;52.002;5.956;2024-02-21T04:30:52;11.20;84.80
39045;DHT22;52192;52.002;5.956;2024-02-21T04:33:18;11.20;84.90
39045;DHT22;52192;52.002;5.956;2024-02-21T04:35:44;11.20;84.90
39045;DHT22;52192;52.002;5.956;2024-02-21T04:38:10;11.20;84.80
39045;DHT22;52192;52.002;5.956;2024-02-21T04:40:36;11.20;84.70
39045;DHT22;52192;52.002;5.956;2024-02-21T04:43:04;11.20;84.60
39045;DHT22;52192;52.002;5.956;2024-02-21T04:45:30;11.20;84.60
39045;DHT22;52192;52.002;5.956;2024-02-21T04:47:56;11.20;84.70
39045;DHT22;52192;52.002;5.956;2024-02-21T04:50:22;11.20;84.70
39045;DHT22;52192;52.002;5.956;2024-02-21T04:52:48;11.20;84.70
39045;DHT22;52192;52.002;5.956;2024-02-21T04:55:14;11.20;84.60
39045;DHT22;52192;52.002;5.956;2024-02-21T04:57:40;11.20;84.40
39045;DHT22;52192;52.002;5.956;2024-02-21T05:00:07;11.20;84.50
39045;DHT22;52192;52.002;5.956;2024-02-21T05:02:33;11.20;84.50
39045;DHT22;52192;52.002;5.956;2024-02-21T05:04:59;11.20;84.40
39045;DHT22;52192;52.002;5.956;2024-02-21T05:07:24;11.20;84.50
39045;DHT22;52192;52.002;5.956;2024-02-21T05:09:51;11.20;84.50
39045;DHT22;52192;52.002;5.956;2024-02-21T05:12:17;11.20;84.40
39045;DHT22;52192;52.002;5.956;2024-02-21T05:14:43;11.20;84.40
39045;DHT22;52192;52.002;5.956;2024-02-21T05:17:09;11.20;84.40
39045;DHT22;52192;52.002;5.956;2024-02-21T05:19:35;11.20;84.40
39045;DHT22;52192;52.002;5.956;2024-02-21T05:22:01;11.20;84.50
39045;DHT22;52192;52.002;5.956;2024-02-21T05:24:27;11.20;84.40
39045;DHT22;52192;52.002;5.956;2024-02-21T05:26:54;11.20;84.20
39045;DHT22;52192;52.002;5.956;2024-02-21T05:29:19;11.20;84.20
39045;DHT22;52192;52.002;5.956;2024-02-21T05:34:21;11.10;84.30
39045;DHT22;52192;52.002;5.956;2024-02-21T05:36:48;11.10;84.30
39045;DHT22;52192;52.002;5.956;2024-02-21T05:39:15;11.20;84.40
39045;DHT22;52192;52.002;5.956;2024-02-21T05:41:42;11.20;84.20
39045;DHT22;52192;52.002;5.956;2024-02-21T05:44:08;11.20;84.20
39045;DHT22;52192;52.002;5.956;2024-02-21T05:46:34;11.20;84.20
39045;DHT22;52192;52.002;5.956;2024-02-21T05:49:00;11.20;84.20
39045;DHT22;52192;52.002;5.956;2024-02-21T05:51:27;11.20;84.20
39045;DHT22;52192;52.002;5.956;2024-02-21T05:53:53;11.10;84.20
39045;DHT22;52192;52.002;5.956;2024-02-21T05:56:19;11.20;84.30
39045;DHT22;52192;52.002;5.956;2024-02-21T05:58:44;11.10;84.20
39045;DHT22;52192;52.002;5.956;2024-02-21T06:01:11;11.10;84.20
39045;DHT22;52192;52.002;5.956;2024-02-21T06:03:37;11.10;84.20
39045;DHT22;52192;52.002;5.956;2024-02-21T06:06:03;11.10;84.20
39045;DHT22;52192;52.002;5.956;2024-02-21T06:08:30;11.10;84.20
39045;DHT22;52192;52.002;5.956;2024-02-21T06:10:56;11.20;84.80
39045;DHT22;52192;52.002;5.956;2024-02-21T06:13:23;11.20;84.10
39045;DHT22;52192;52.002;5.956;2024-02-21T06:15:49;11.20;84.60
39045;DHT22;52192;52.002;5.956;2024-02-21T06:18:19;11.30;84.10
39045;DHT22;52192;52.002;5.956;2024-02-21T06:20:45;11.20;84.70
39045;DHT22;52192;52.002;5.956;2024-02-21T06:23:12;11.20;83.90
39045;DHT22;52192;52.002;5.956;2024-02-21T06:25:38;11.30;83.90
39045;DHT22;52192;52.002;5.956;2024-02-21T06:28:05;11.20;83.90
39045;DHT22;52192;52.002;5.956;2024-02-21T06:30:31;11.20;83.90
39045;DHT22;52192;52.002;5.956;2024-02-21T06:32:56;11.10;84.00
39045;DHT22;52192;52.002;5.956;2024-02-21T06:35:22;11.10;84.10
39045;DHT22;52192;52.002;5.956;2024-02-21T06:37:51;11.10;84.00
39045;DHT22;52192;52.002;5.956;2024-02-21T06:40:23;11.00;84.10
39045;DHT22;52192;52.002;5.956;2024-02-21T06:42:50;11.00;84.20
39045;DHT22;52192;52.002;5.956;2024-02-21T06:45:16;11.00;84.20
39045;DHT22;52192;52.002;5.956;2024-02-21T06:47:42;11.00;84.20
39045;DHT22;52192;52.002;5.956;2024-02-21T06:50:08;11.10;84.10
39045;DHT22;52192;52.002;5.956;2024-02-21T06:52:34;11.10;84.00
39045;DHT22;52192;52.002;5.956;2024-02-21T06:55:00;11.10;83.90
39045;DHT22;52192;52.002;5.956;2024-02-21T06:57:26;11.10;83.70
39045;DHT22;52192;52.002;5.956;2024-02-21T06:59:51;11.10;83.80
39045;DHT22;52192;52.002;5.956;2024-02-21T07:02:17;11.10;83.80
39045;DHT22;52192;52.002;5.956;2024-02-21T07:04:43;11.20;83.80
39045;DHT22;52192;52.002;5.956;2024-02-21T07:07:09;11.20;83.70
39045;DHT22;52192;52.002;5.956;2024-02-21T07:09:34;11.20;83.60
39045;DHT22;52192;52.002;5.956;2024-02-21T07:12:01;11.20;83.70
39045;DHT22;52192;52.002;5.956;2024-02-21T07:14:28;11.20;83.70
39045;DHT22;52192;52.002;5.956;2024-02-21T07:16:54;11.10;83.50
39045;DHT22;52192;52.002;5.956;2024-02-21T07:19:20;11.10;83.70
39045;DHT22;52192;52.002;5.956;2024-02-21T07:21:45;11.20;83.60
39045;DHT22;52192;52.002;5.956;2024-02-21T07:24:11;11.10;83.40
39045;DHT22;52192;52.002;5.956;2024-02-21T07:26:40;11.10;83.40
39045;DHT22;52192;52.002;5.956;2024-02-21T07:29:06;11.10;83.40
39045;DHT22;52192;52.002;5.956;2024-02-21T07:31:41;11.10;83.30
39045;DHT22;52192;52.002;5.956;2024-02-21T07:34:08;11.20;83.50
39045;DHT22;52192;52.002;5.956;2024-02-21T07:36:33;11.20;83.30
39045;DHT22;52192;52.002;5.956;2024-02-21T07:38:59;11.10;83.20
39045;DHT22;52192;52.002;5.956;2024-02-21T07:41:25;11.20;83.30
39045;DHT22;52192;52.002;5.956;2024-02-21T07:43:51;11.20;83.30
39045;DHT22;52192;52.002;5.956;2024-02-21T07:46:18;11.20;83.20
39045;DHT22;52192;52.002;5.956;2024-02-21T07:48:45;11.20;83.20
39045;DHT22;52192;52.002;5.956;2024-02-21T07:51:11;11.20;83.10
39045;DHT22;52192;52.002;5.956;2024-02-21T07:53:38;11.20;83.10
39045;DHT22;52192;52.002;5.956;2024-02-21T07:56:04;11.20;83.10
39045;DHT22;52192;52.002;5.956;2024-02-21T07:58:30;11.20;83.10
39045;DHT22;52192;52.002;5.956;2024-02-21T08:00:55;11.20;83.10
39045;DHT22;52192;52.002;5.956;2024-02-21T08:03:21;11.30;83.10
39045;DHT22;52192;52.002;5.956;2024-02-21T08:05:48;11.30;83.00
39045;DHT22;52192;52.002;5.956;2024-02-21T08:08:13;11.30;83.00
39045;DHT22;52192;52.002;5.956;2024-02-21T08:10:43;11.40;83.00
39045;DHT22;52192;52.002;5.956;2024-02-21T08:13:09;11.40;82.80
39045;DHT22;52192;52.002;5.956;2024-02-21T08:15:35;11.40;82.80
39045;DHT22;52192;52.002;5.956;2024-02-21T08:18:00;11.40;82.80
39045;DHT22;52192;52.002;5.956;2024-02-21T08:20:27;11.40;82.70
39045;DHT22;52192;52.002;5.956;2024-02-21T08:22:53;11.40;83.10
39045;DHT22;52192;52.002;5.956;2024-02-21T08:25:18;11.40;82.60
39045;DHT22;52192;52.002;5.956;2024-02-21T08:27:44;11.50;82.60
39045;DHT22;52192;52.002;5.956;2024-02-21T08:30:11;11.50;82.40
39045;DHT22;52192;52.002;5.956;2024-02-21T08:32:37;11.50;82.40
39045;DHT22;52192;52.002;5.956;2024-02-21T08:35:03;11.50;82.60
39045;DHT22;52192;52.002;5.956;2024-02-21T08:37:30;11.40;82.00
39045;DHT22;52192;52.002;5.956;2024-02-21T08:39:56;11.40;82.00
39045;DHT22;52192;52.002;5.956;2024-02-21T08:42:22;11.40;82.10
39045;DHT22;52192;52.002;5.956;2024-02-21T08:44:47;11.40;82.00
39045;DHT22;52192;52.002;5.956;2024-02-21T08:47:13;11.50;82.00
39045;DHT22;52192;52.002;5.956;2024-02-21T08:49:39;11.50;82.10
39045;DHT22;52192;52.002;5.956;2024-02-21T08:52:05;11.50;82.10
39045;DHT22;52192;52.002;5.956;2024-02-21T08:54:31;11.50;82.10
39045;DHT22;52192;52.002;5.956;2024-02-21T08:56:58;11.60;82.10
39045;DHT22;52192;52.002;5.956;2024-02-21T08:59:24;11.60;81.60
39045;DHT22;52192;52.002;5.956;2024-02-21T09:01:51;11.60;81.80
39045;DHT22;52192;52.002;5.956;2024-02-21T09:04:18;11.50;81.50
39045;DHT22;52192;52.002;5.956;2024-02-21T09:06:45;11.50;81.60
39045;DHT22;52192;52.002;5.956;2024-02-21T09:09:11;11.40;81.60
39045;DHT22;52192;52.002;5.956;2024-02-21T09:11:37;11.40;82.30
39045;DHT22;52192;52.002;5.956;2024-02-21T09:14:03;11.50;81.70
39045;DHT22;52192;52.002;5.956;2024-02-21T09:16:33;11.50;81.60
39045;DHT22;52192;52.002;5.956;2024-02-21T09:18:59;11.60;81.60
39045;DHT22;52192;52.002;5.956;2024-02-21T09:21:26;11.50;81.40
39045;DHT22;52192;52.002;5.956;2024-02-21T09:23:51;11.60;81.40
39045;DHT22;52192;52.002;5.956;2024-02-21T09:26:17;11.60;81.30
39045;DHT22;52192;52.002;5.956;2024-02-21T09:28:43;11.70;81.40
39045;DHT22;52192;52.002;5.956;2024-02-21T09:31:12;11.70;81.10
39045;DHT22;52192;52.002;5.956;2024-02-21T09:33:37;11.70;81.10
39045;DHT22;52192;52.002;5.956;2024-02-21T09:36:03;11.70;81.20
39045;DHT22;52192;52.002;5.956;2024-02-21T09:38:31;11.80;81.10
39045;DHT22;52192;52.002;5.956;2024-02-21T09:41:08;11.90;81.00
39045;DHT22;52192;52.002;5.956;2024-02-21T09:43:38;11.90;80.60
39045;DHT22;52192;52.002;5.956;2024-02-21T09:46:05;11.80;80.30
39045;DHT22;52192;52.002;5.956;2024-02-21T09:51:12;11.80;80.60
39045;DHT22;52192;52.002;5.956;2024-02-21T09:53:40;11.80;80.60
39045;DHT22;52192;52.002;5.956;2024-02-21T09:56:10;11.80;80.60
39045;DHT22;52192;52.002;5.956;2024-02-21T09:58:36;11.80;80.50
39045;DHT22;52192;52.002;5.956;2024-02-21T10:01:03;11.90;80.60
39045;DHT22;52192;52.002;5.956;2024-02-21T10:03:32;11.90;80.30
39045;DHT22;52192;52.002;5.956;2024-02-21T10:05:59;11.90;80.30
39045;DHT22;52192;52.002;5.956;2024-02-21T10:08:26;12.00;80.10
39045;DHT22;52192;52.002;5.956;2024-02-21T10:10:52;12.00;80.00
39045;DHT22;52192;52.002;5.956;2024-02-21T10:13:28;12.00;80.00
39045;DHT22;52192;52.002;5.956;2024-02-21T10:16:04;12.00;79.90
39045;DHT22;52192;52.002;5.956;2024-02-21T10:18:30;12.00;79.70
39045;DHT22;52192;52.002;5.956;2024-02-21T10:21:06;12.00;79.70
39045;DHT22;52192;52.002;5.956;2024-02-21T10:23:45;12.00;79.90
39045;DHT22;52192;52.002;5.956;2024-02-21T10:26:11;12.10;79.80
39045;DHT22;52192;52.002;5.956;2024-02-21T10:28:38;12.10;79.60
39045;DHT22;52192;52.002;5.956;2024-02-21T10:31:20;12.10;79.60
39045;DHT22;52192;52.002;5.956;2024-02-21T10:33:56;12.10;79.80
39045;DHT22;52192;52.002;5.956;2024-02-21T10:36:23;12.10;79.80
39045;DHT22;52192;52.002;5.956;2024-02-21T10:38:50;12.10;80.00
39045;DHT22;52192;52.002;5.956;2024-02-21T10:41:16;12.00;80.00
39045;DHT22;52192;52.002;5.956;2024-02-21T10:43:49;12.00;80.10
39045;DHT22;52192;52.002;5.956;2024-02-21T10:46:18;11.90;80.30
39045;DHT22;52192;52.002;5.956;2024-02-21T10:48:45;11.80;80.70
39045;DHT22;52192;52.002;5.956;2024-02-21T10:51:18;11.80;80.90
39045;DHT22;52192;52.002;5.956;2024-02-21T10:54:15;11.80;81.00
39045;DHT22;52192;52.002;5.956;2024-02-21T10:56:45;11.90;81.00
39045;DHT22;52192;52.002;5.956;2024-02-21T10:59:13;11.80;81.20
39045;DHT22;52192;52.002;5.956;2024-02-21T11:01:39;11.80;81.30
39045;DHT22;52192;52.002;5.956;2024-02-21T11:04:06;11.70;81.50
39045;DHT22;52192;52.002;5.956;2024-02-21T11:06:34;11.70;81.70
39045;DHT22;52192;52.002;5.956;2024-02-21T11:11:27;11.80;81.80
39045;DHT22;52192;52.002;5.956;2024-02-21T11:13:52;11.80;81.90
39045;DHT22;52192;52.002;5.956;2024-02-21T11:16:22;11.90;81.90
39045;DHT22;52192;52.002;5.956;2024-02-21T11:18:48;11.90;81.90
39045;DHT22;52192;52.002;5.956;2024-02-21T11:21:15;11.90;81.80
39045;DHT22;52192;52.002;5.956;2024-02-21T11:23:41;11.90;81.90
39045;DHT22;52192;52.002;5.956;2024-02-21T11:26:10;12.00;82.00
39045;DHT22;52192;52.002;5.956;2024-02-21T11:28:44;12.10;82.40
39045;DHT22;52192;52.002;5.956;2024-02-21T11:31:13;12.10;81.70
39045;DHT22;52192;52.002;5.956;2024-02-21T11:33:43;12.10;81.60
39045;DHT22;52192;52.002;5.956;2024-02-21T11:36:09;12.20;81.50
39045;DHT22;52192;52.002;5.956;2024-02-21T11:38:35;12.20;81.30
39045;DHT22;52192;52.002;5.956;2024-02-21T11:41:01;12.10;81.20
39045;DHT22;52192;52.002;5.956;2024-02-21T11:43:27;12.10;81.40
39045;DHT22;52192;52.002;5.956;2024-02-21T11:46:00;12.00;81.50
39045;DHT22;52192;52.002;5.956;2024-02-21T11:48:26;12.00;81.60
39045;DHT22;52192;52.002;5.956;2024-02-21T11:50:54;12.00;81.60
39045;DHT22;52192;52.002;5.956;2024-02-21T11:53:20;12.00;81.70
39045;DHT22;52192;52.002;5.956;2024-02-21T11:55:46;12.00;81.60
39045;DHT22;52192;52.002;5.956;2024-02-21T11:58:12;12.00;81.60
39045;DHT22;52192;52.002;5.956;2024-02-21T12:00:37;12.00;81.50
39045;DHT22;52192;52.002;5.956;2024-02-21T12:03:04;11.90;81.50
39045;DHT22;52192;52.002;5.956;2024-02-21T12:05:31;11.90;81.60
39045;DHT22;52192;52.002;5.956;2024-02-21T12:07:57;11.90;81.50
39045;DHT22;52192;52.002;5.956;2024-02-21T12:10:25;11.80;81.30
39045;DHT22;52192;52.002;5.956;2024-02-21T12:12:52;11.80;81.30
39045;DHT22;52192;52.002;5.956;2024-02-21T12:15:18;11.80;81.10
39045;DHT22;52192;52.002;5.956;2024-02-21T12:17:44;11.80;81.20
39045;DHT22;52192;52.002;5.956;2024-02-21T12:20:10;11.90;81.10
39045;DHT22;52192;52.002;5.956;2024-02-21T12:22:41;12.00;81.10
39045;DHT22;52192;52.002;5.956;2024-02-21T12:25:17;12.10;81.00
39045;DHT22;52192;52.002;5.956;2024-02-21T12:27:48;12.10;80.70
39045;DHT22;52192;52.002;5.956;2024-02-21T12:30:15;12.20;80.60
39045;DHT22;52192;52.002;5.956;2024-02-21T12:32:41;12.30;80.50
39045;DHT22;52192;52.002;5.956;2024-02-21T12:35:07;12.50;80.20
39045;DHT22;52192;52.002;5.956;2024-02-21T12:37:33;12.60;79.70
39045;DHT22;52192;52.002;5.956;2024-02-21T12:39:59;12.60;79.30
39045;DHT22;52192;52.002;5.956;2024-02-21T12:42:26;12.70;79.10
39045;DHT22;52192;52.002;5.956;2024-02-21T12:44:55;12.70;79.00
39045;DHT22;52192;52.002;5.956;2024-02-21T12:47:20;12.80;79.00
39045;DHT22;52192;52.002;5.956;2024-02-21T12:49:49;12.80;78.30
39045;DHT22;52192;52.002;5.956;2024-02-21T12:52:15;12.80;78.40
39045;DHT22;52192;52.002;5.956;2024-02-21T12:54:40;12.80;78.20
39045;DHT22;52192;52.002;5.956;2024-02-21T12:57:08;12.80;78.10
39045;DHT22;52192;52.002;5.956;2024-02-21T12:59:33;12.80;78.10
39045;DHT22;52192;52.002;5.956;2024-02-21T13:01:59;12.80;77.80
39045;DHT22;52192;52.002;5.956;2024-02-21T13:04:25;12.70;77.50
39045;DHT22;52192;52.002;5.956;2024-02-21T13:06:50;12.70;77.40
39045;DHT22;52192;52.002;5.956;2024-02-21T13:09:16;12.70;77.80
39045;DHT22;52192;52.002;5.956;2024-02-21T13:11:42;12.80;77.80
39045;DHT22;52192;52.002;5.956;2024-02-21T13:14:10;12.80;77.60
39045;DHT22;52192;52.002;5.956;2024-02-21T13:16:36;12.70;77.50
39045;DHT22;52192;52.002;5.956;2024-02-21T13:19:08;12.70;77.50
39045;DHT22;52192;52.002;5.956;2024-02-21T13:21:34;12.70;77.60
39045;DHT22;52192;52.002;5.956;2024-02-21T13:24:00;12.70;77.80
39045;DHT22;52192;52.002;5.956;2024-02-21T13:26:26;12.70;77.80
39045;DHT22;52192;52.002;5.956;2024-02-21T13:28:52;12.80;78.00
39045;DHT22;52192;52.002;5.956;2024-02-21T13:31:18;12.80;77.90
39045;DHT22;52192;52.002;5.956;2024-02-21T13:33:43;12.90;77.90
39045;DHT22;52192;52.002;5.956;2024-02-21T13:36:12;12.90;77.90
39045;DHT22;52192;52.002;5.956;2024-02-21T13:38:38;13.00;77.90
39045;DHT22;52192;52.002;5.956;2024-02-21T13:41:05;13.00;77.90
39045;DHT22;52192;52.002;5.956;2024-02-21T13:43:31;13.00;77.80
39045;DHT22;52192;52.002;5.956;2024-02-21T13:45:59;13.00;77.70
39045;DHT22;52192;52.002;5.956;2024-02-21T13:48:25;13.00;77.90
39045;DHT22;52192;52.002;5.956;2024-02-21T13:50:50;13.00;77.80
39045;DHT22;52192;52.002;5.956;2024-02-21T13:53:16;13.00;77.70
39045;DHT22;52192;52.002;5.956;2024-02-21T13:55:44;12.90;77.20
39045;DHT22;52192;52.002;5.956;2024-02-21T13:58:10;12.90;77.50
39045;DHT22;52192;52.002;5.956;2024-02-21T14:00:36;13.00;77.60
39045;DHT22;52192;52.002;5.956;2024-02-21T14:03:02;13.00;77.30
39045;DHT22;52192;52.002;5.956;2024-02-21T14:05:28;13.00;77.00
39045;DHT22;52192;52.002;5.956;2024-02-21T14:07:53;12.90;76.40
39045;DHT22;52192;52.002;5.956;2024-02-21T14:10:23;12.90;76.50
39045;DHT22;52192;52.002;5.956;2024-02-21T14:12:49;12.90;76.50
39045;DHT22;52192;52.002;5.956;2024-02-21T14:15:15;12.90;76.40
39045;DHT22;52192;52.002;5.956;2024-02-21T14:17:42;12.90;76.40
39045;DHT22;52192;52.002;5.956;2024-02-21T14:20:08;12.90;76.30
39045;DHT22;52192;52.002;5.956;2024-02-21T14:22:34;12.90;76.30
39045;DHT22;52192;52.002;5.956;2024-02-21T14:25:03;12.90;75.60
39045;DHT22;52192;52.002;5.956;2024-02-21T14:27:30;12.90;75.60
39045;DHT22;52192;52.002;5.956;2024-02-21T14:29:56;12.90;75.80
39045;DHT22;52192;52.002;5.956;2024-02-21T14:32:22;12.90;74.90
39045;DHT22;52192;52.002;5.956;2024-02-21T14:34:48;12.90;74.60
39045;DHT22;52192;52.002;5.956;2024-02-21T14:37:14;12.90;74.60
39045;DHT22;52192;52.002;5.956;2024-02-21T14:39:40;12.90;74.60
39045;DHT22;52192;52.002;5.956;2024-02-21T14:42:07;12.90;74.60
39045;DHT22;52192;52.002;5.956;2024-02-21T14:44:35;12.90;74.70
39045;DHT22;52192;52.002;5.956;2024-02-21T14:47:01;12.90;74.70
39045;DHT22;52192;52.002;5.956;2024-02-21T14:49:26;12.90;74.10
39045;DHT22;52192;52.002;5.956;2024-02-21T14:51:54;12.80;73.90
39045;DHT22;52192;52.002;5.956;2024-02-21T14:54:23;12.80;73.60
39045;DHT22;52192;52.002;5.956;2024-02-21T14:56:49;12.70;73.80
39045;DHT22;52192;52.002;5.956;2024-02-21T14:59:15;12.70;74.20
39045;DHT22;52192;52.002;5.956;2024-02-21T15:01:44;12.80;74.40
39045;DHT22;52192;52.002;5.956;2024-02-21T15:04:10;12.80;74.30
39045;DHT22;52192;52.002;5.956;2024-02-21T15:06:35;12.70;74.30
39045;DHT22;52192;52.002;5.956;2024-02-21T15:09:05;12.70;74.30
39045;DHT22;52192;52.002;5.956;2024-02-21T15:11:32;12.70;75.10
39045;DHT22;52192;52.002;5.956;2024-02-21T15:13:58;12.70;74.50
39045;DHT22;52192;52.002;5.956;2024-02-21T15:16:24;12.70;74.60
39045;DHT22;52192;52.002;5.956;2024-02-21T15:18:49;12.60;74.80
39045;DHT22;52192;52.002;5.956;2024-02-21T15:21:15;12.70;75.60
39045;DHT22;52192;52.002;5.956;2024-02-21T15:23:41;12.60;75.00
39045;DHT22;52192;52.002;5.956;2024-02-21T15:26:07;12.60;75.30
39045;DHT22;52192;52.002;5.956;2024-02-21T15:28:32;12.60;75.50
39045;DHT22;52192;52.002;5.956;2024-02-21T15:30:58;12.60;75.70
39045;DHT22;52192;52.002;5.956;2024-02-21T15:33:24;12.50;75.80
39045;DHT22;52192;52.002;5.956;2024-02-21T15:35:51;12.50;76.10